Time;durP1;ratioP1;P1;durP2;ratioP2;P2;SDS_P1;SDS_P2;PMS_P1;PMS_P2;Temp;Humidity;BMP_temperature;BMP_pressure;BME280_temperature;BME280_humidity;BME280_pressure;Samples;Min_cycle;Max_cycle;Signal;HPM_P1;HPM_P2
2021/05/22 00:00:36;;;;;;;2.20;1.70;;;8.60;99.10;;;;;;5094504;28;20283;-88
2021/05/22 00:03:03;;;;;;;2.00;1.60;;;8.50;99.50;;;;;;5078937;28;20200;-89
2021/05/22 00:05:30;;;;;;;1.50;1.40;;;8.50;99.40;;;;;;5080109;28;20251;-89
2021/05/22 00:07:56;;;;;;;1.10;1.00;;;8.40;99.60;;;;;;5078094;28;20203;-88
2021/05/22 00:10:22;;;;;;;1.53;1.23;;;8.40;99.90;;;;;;5079802;28;20205;-87
2021/05/22 00:12:49;;;;;;;1.40;1.10;;;8.30;99.90;;;;;;5077721;28;20599;-87
2021/05/22 00:15:18;;;;;;;1.37;1.20;;;8.30;99.90;;;;;;5077969;28;20213;-88
2021/05/22 00:17:45;;;;;;;1.00;0.90;;;8.30;99.90;;;;;;5076200;28;20239;-88
2021/05/22 00:20:13;;;;;;;1.43;1.00;;;8.40;99.90;;;;;;5077975;28;20215;-87
2021/05/22 00:22:40;;;;;;;0.80;0.80;;;8.40;99.90;;;;;;5097758;28;20246;-88
2021/05/22 00:25:08;;;;;;;0.87;0.87;;;8.30;99.90;;;;;;5103934;28;20507;-88
2021/05/22 00:27:35;;;;;;;2.20;1.10;;;8.40;99.90;;;;;;5107343;28;20212;-88
2021/05/22 00:30:01;;;;;;;1.40;0.90;;;8.40;99.90;;;;;;5105041;28;20196;-87
2021/05/22 00:32:29;;;;;;;0.90;0.90;;;8.30;99.90;;;;;;5099116;28;20220;-88
2021/05/22 00:34:55;;;;;;;1.27;1.00;;;8.30;99.90;;;;;;5112026;28;20231;-87
2021/05/22 00:37:22;;;;;;;0.87;0.87;;;8.40;99.90;;;;;;5094955;28;20227;-86
2021/05/22 00:39:48;;;;;;;1.50;0.90;;;8.40;99.90;;;;;;5102652;28;20197;-88
2021/05/22 00:42:15;;;;;;;0.80;0.80;;;8.40;99.90;;;;;;5103040;28;20224;-87
2021/05/22 00:45:04;;;;;;;0.70;0.70;;;8.30;99.90;;;;;;5097511;28;20196;-86
2021/05/22 00:47:32;;;;;;;2.40;1.10;;;8.30;99.90;;;;;;5098290;28;20212;-87
2021/05/22 00:49:58;;;;;;;1.00;1.00;;;8.30;99.90;;;;;;5100299;28;20226;-87
2021/05/22 00:52:25;;;;;;;2.20;1.03;;;8.30;99.90;;;;;;5101992;28;20216;-86
2021/05/22 00:54:52;;;;;;;0.93;0.93;;;8.30;99.90;;;;;;5103257;28;20248;-86
2021/05/22 00:57:19;;;;;;;1.30;0.77;;;8.20;99.90;;;;;;5108037;28;20262;-86
2021/05/22 00:59:45;;;;;;;2.90;1.20;;;8.20;99.90;;;;;;5103581;28;20216;-86
2021/05/22 01:02:18;;;;;;;1.90;1.10;;;8.20;99.90;;;;;;5102575;28;20289;-86
2021/05/22 01:04:46;;;;;;;0.97;0.87;;;8.20;99.90;;;;;;5113699;28;20201;-86
2021/05/22 01:07:12;;;;;;;1.00;0.90;;;8.20;99.90;;;;;;5106564;28;20228;-86
2021/05/22 01:09:40;;;;;;;1.63;0.93;;;8.20;99.90;;;;;;5109380;28;20212;-86
2021/05/22 01:12:08;;;;;;;1.03;1.00;;;8.30;99.90;;;;;;5104020;28;20224;-86
2021/05/22 01:14:41;;;;;;;0.80;0.80;;;8.20;99.90;;;;;;5101888;28;20287;-86
2021/05/22 01:17:09;;;;;;;3.63;1.20;;;8.20;99.90;;;;;;5090759;28;20254;-86
2021/05/22 01:19:41;;;;;;;1.37;1.27;;;8.20;99.90;;;;;;5081827;28;20197;-86
2021/05/22 01:22:10;;;;;;;1.23;1.10;;;8.10;99.90;;;;;;5097485;28;20702;-87
2021/05/22 01:24:47;;;;;;;0.80;0.80;;;8.00;99.90;;;;;;5104670;28;20212;-88
2021/05/22 01:27:15;;;;;;;2.80;1.00;;;8.00;99.90;;;;;;5081979;28;20228;-86
2021/05/22 01:29:42;;;;;;;1.80;1.10;;;7.90;99.90;;;;;;5083486;28;20216;-86
2021/05/22 01:32:08;;;;;;;3.03;0.90;;;7.90;99.90;;;;;;5083142;28;20691;-87
2021/05/22 01:34:35;;;;;;;1.23;1.13;;;7.90;99.90;;;;;;5083441;28;20202;-88
2021/05/22 01:37:03;;;;;;;0.80;0.80;;;7.90;99.90;;;;;;5081499;28;20228;-87
2021/05/22 01:39:29;;;;;;;1.90;0.90;;;7.90;99.90;;;;;;5083299;28;20201;-88
2021/05/22 01:41:56;;;;;;;0.73;0.73;;;7.80;99.90;;;;;;5077456;28;20220;-87
2021/05/22 01:44:28;;;;;;;1.50;1.27;;;7.70;99.90;;;;;;5084313;28;20203;-86
2021/05/22 01:46:56;;;;;;;2.83;0.70;;;7.70;99.90;;;;;;5075527;28;20225;-86
2021/05/22 01:49:26;;;;;;;0.87;0.70;;;7.70;99.90;;;;;;5080575;28;20264;-86
2021/05/22 01:51:54;;;;;;;1.50;0.77;;;7.60;99.90;;;;;;5080049;28;20221;-86
2021/05/22 01:54:21;;;;;;;0.87;0.60;;;7.60;99.90;;;;;;5081773;28;20217;-86
2021/05/22 01:56:48;;;;;;;0.60;0.60;;;7.60;99.90;;;;;;5091924;28;20220;-87
2021/05/22 01:59:16;;;;;;;0.60;0.60;;;7.60;99.90;;;;;;5100490;28;20211;-86
2021/05/22 02:01:47;;;;;;;1.27;0.80;;;7.60;99.90;;;;;;5099008;28;20224;-88
2021/05/22 02:04:14;;;;;;;0.73;0.60;;;7.60;99.90;;;;;;5098263;28;20648;-86
2021/05/22 02:06:43;;;;;;;1.07;0.83;;;7.60;99.90;;;;;;5091759;28;20232;-87
2021/05/22 02:09:13;;;;;;;1.70;1.07;;;7.60;99.90;;;;;;5081221;28;20207;-86
2021/05/22 02:11:43;;;;;;;1.37;1.20;;;7.60;99.90;;;;;;5078060;28;20591;-86
2021/05/22 02:14:12;;;;;;;0.70;0.70;;;7.60;99.90;;;;;;5082577;28;20227;-86
2021/05/22 02:16:46;;;;;;;0.70;0.70;;;7.60;99.90;;;;;;5085817;28;20224;-88
2021/05/22 02:19:15;;;;;;;0.73;0.70;;;7.60;99.90;;;;;;5106482;28;20199;-87
2021/05/22 02:21:44;;;;;;;0.90;0.90;;;7.60;99.90;;;;;;5086856;28;20232;-87
2021/05/22 02:24:13;;;;;;;0.70;0.67;;;7.60;99.90;;;;;;5072389;28;20216;-87
2021/05/22 02:26:40;;;;;;;1.80;0.77;;;7.60;99.90;;;;;;5075775;28;20224;-88
2021/05/22 02:29:09;;;;;;;0.87;0.73;;;7.60;99.90;;;;;;5079461;28;20872;-86
2021/05/22 02:31:40;;;;;;;1.10;1.00;;;7.60;99.90;;;;;;5086216;28;20216;-87
2021/05/22 02:34:08;;;;;;;0.70;0.70;;;7.60;99.60;;;;;;5100892;28;20264;-86
2021/05/22 02:36:37;;;;;;;1.33;0.70;;;7.70;99.90;;;;;;5098876;28;20263;-87
2021/05/22 02:39:06;;;;;;;0.80;0.80;;;7.70;99.70;;;;;;5090648;28;20196;-87
2021/05/22 02:41:33;;;;;;;0.67;0.67;;;7.70;99.50;;;;;;5096469;28;20234;-89
2021/05/22 02:44:02;;;;;;;0.63;0.53;;;7.70;99.50;;;;;;5100383;28;20204;-87
2021/05/22 02:46:34;;;;;;;0.50;0.50;;;7.70;99.40;;;;;;5096992;28;20248;-88
2021/05/22 02:49:01;;;;;;;1.73;0.80;;;7.70;99.40;;;;;;5098908;28;20234;-86
2021/05/22 02:51:30;;;;;;;0.60;0.60;;;7.70;99.60;;;;;;5092927;28;20220;-88
2021/05/22 02:53:59;;;;;;;0.80;0.73;;;7.70;99.50;;;;;;5077683;28;20224;-88
2021/05/22 02:56:26;;;;;;;0.93;0.80;;;7.70;99.50;;;;;;5084793;28;20216;-87
2021/05/22 02:58:55;;;;;;;0.80;0.80;;;7.70;99.50;;;;;;5100423;28;20211;-87
2021/05/22 03:01:22;;;;;;;0.83;0.60;;;7.80;99.70;;;;;;5092694;28;20278;-86
2021/05/22 03:03:49;;;;;;;0.80;0.80;;;7.90;99.60;;;;;;5082109;28;20257;-89
2021/05/22 03:06:15;;;;;;;1.93;0.60;;;7.90;99.60;;;;;;5086386;28;20573;-86
2021/05/22 03:08:44;;;;;;;0.60;0.60;;;7.90;99.60;;;;;;5106757;28;20246;-87
2021/05/22 03:11:12;;;;;;;0.97;0.97;;;8.00;99.80;;;;;;5092327;28;20221;-87
2021/05/22 03:13:38;;;;;;;1.27;0.60;;;8.00;99.70;;;;;;5080297;28;20230;-86
2021/05/22 03:16:05;;;;;;;0.70;0.70;;;8.00;99.80;;;;;;5083913;28;20220;-87
2021/05/22 03:18:32;;;;;;;0.40;0.40;;;8.00;99.70;;;;;;5100970;28;20214;-86
2021/05/22 03:20:58;;;;;;;0.97;0.63;;;8.00;99.70;;;;;;5095512;28;20668;-87
2021/05/22 03:23:25;;;;;;;0.50;0.50;;;8.00;99.40;;;;;;5078545;28;20197;-87
2021/05/22 03:25:53;;;;;;;0.87;0.87;;;8.00;99.40;;;;;;5075899;28;20225;-87
2021/05/22 03:28:19;;;;;;;1.03;0.60;;;8.00;99.30;;;;;;5075643;28;20263;-88
2021/05/22 03:30:46;;;;;;;1.43;1.00;;;8.00;99.20;;;;;;5078456;28;20205;-87
2021/05/22 03:33:12;;;;;;;0.70;0.70;;;8.00;99.10;;;;;;5070311;28;20205;-88
2021/05/22 03:35:40;;;;;;;0.80;0.80;;;8.00;99.00;;;;;;5070734;28;20197;-88
2021/05/22 03:38:06;;;;;;;0.90;0.90;;;8.10;98.70;;;;;;5067814;28;20243;-88
2021/05/22 03:40:32;;;;;;;1.03;0.80;;;8.10;98.30;;;;;;5072564;28;20336;-88
2021/05/22 03:43:00;;;;;;;1.03;0.87;;;8.10;98.40;;;;;;5073679;28;20211;-89
2021/05/22 03:45:26;;;;;;;0.53;0.53;;;8.00;98.10;;;;;;5072773;28;20203;-90
2021/05/22 03:47:53;;;;;;;0.77;0.77;;;8.10;97.80;;;;;;5067491;28;20272;-87
2021/05/22 03:50:19;;;;;;;3.03;0.70;;;8.20;97.40;;;;;;5080201;28;20201;-87
2021/05/22 03:52:46;;;;;;;0.60;0.60;;;8.20;97.50;;;;;;5068944;28;20239;-87
2021/05/22 03:55:13;;;;;;;0.60;0.60;;;8.20;97.30;;;;;;5068329;28;20229;-88
2021/05/22 03:57:40;;;;;;;3.60;0.77;;;8.20;97.20;;;;;;5067808;28;20221;-88
2021/05/22 04:00:10;;;;;;;1.30;1.07;;;8.20;97.00;;;;;;5077327;28;20333;-89
2021/05/22 04:02:36;;;;;;;1.40;0.90;;;8.20;97.10;;;;;;5085519;28;20227;-86
2021/05/22 04:05:04;;;;;;;1.30;1.10;;;8.30;97.50;;;;;;5091168;28;20230;-88
2021/05/22 04:07:30;;;;;;;1.07;0.70;;;8.30;97.50;;;;;;5100736;28;20234;-87
2021/05/22 04:09:57;;;;;;;0.70;0.70;;;8.20;97.40;;;;;;5102319;28;20240;-86
2021/05/22 04:12:23;;;;;;;0.60;0.60;;;8.30;97.00;;;;;;5102231;28;20220;-88
2021/05/22 04:14:49;;;;;;;0.97;0.97;;;8.30;96.80;;;;;;5104988;28;20564;-88
2021/05/22 04:17:17;;;;;;;0.70;0.70;;;8.30;97.20;;;;;;5088040;28;20289;-86
2021/05/22 04:19:43;;;;;;;1.83;0.70;;;8.40;97.00;;;;;;5083212;28;20300;-87
2021/05/22 04:22:10;;;;;;;0.73;0.73;;;8.40;96.40;;;;;;5086686;28;20307;-86
2021/05/22 04:24:36;;;;;;;1.47;1.10;;;8.50;96.30;;;;;;5093625;28;20223;-87
2021/05/22 04:27:03;;;;;;;3.10;0.80;;;8.50;96.30;;;;;;5105055;28;20224;-86
2021/05/22 04:29:30;;;;;;;2.70;0.80;;;8.50;96.40;;;;;;5107112;28;20243;-86
2021/05/22 04:31:56;;;;;;;0.80;0.80;;;8.50;96.50;;;;;;5097645;28;20251;-89
2021/05/22 04:34:23;;;;;;;0.90;0.73;;;8.40;96.20;;;;;;5092192;28;20226;-86
2021/05/22 04:36:50;;;;;;;0.80;0.55;;;8.40;96.30;;;;;;5084670;28;20232;-87
2021/05/22 04:39:16;;;;;;;0.73;0.73;;;8.50;96.60;;;;;;5086460;28;20234;-88
2021/05/22 04:41:43;;;;;;;1.43;0.80;;;8.50;95.80;;;;;;5087678;28;20221;-87
2021/05/22 04:44:09;;;;;;;0.80;0.80;;;8.60;95.80;;;;;;5095602;28;20292;-87
2021/05/22 04:46:35;;;;;;;3.42;0.93;;;8.70;95.80;;;;;;5085500;28;20229;-86
2021/05/22 04:49:02;;;;;;;0.70;0.70;;;8.70;94.70;;;;;;5085186;28;20197;-89
2021/05/22 04:51:30;;;;;;;0.93;0.70;;;8.80;94.60;;;;;;5080722;28;20232;-91
2021/05/22 04:54:03;;;;;;;0.80;0.80;;;8.90;94.00;;;;;;5081457;28;20232;-89
2021/05/22 04:56:29;;;;;;;1.08;0.65;;;9.00;94.50;;;;;;5090991;28;20219;-88
2021/05/22 04:58:56;;;;;;;1.63;0.80;;;9.00;94.10;;;;;;5102323;28;20645;-90
2021/05/22 05:01:23;;;;;;;0.63;0.63;;;8.90;94.20;;;;;;5102131;28;20267;-88
2021/05/22 05:03:49;;;;;;;0.82;0.80;;;9.00;94.70;;;;;;5104594;28;20204;-89
2021/05/22 05:06:16;;;;;;;0.60;0.60;;;9.00;94.40;;;;;;5104773;28;20232;-88
2021/05/22 05:08:43;;;;;;;0.73;0.73;;;9.00;94.60;;;;;;5105238;28;20204;-88
2021/05/22 05:11:10;;;;;;;1.23;1.00;;;8.90;94.90;;;;;;5103301;28;20220;-89
2021/05/22 05:13:36;;;;;;;1.10;0.90;;;8.90;95.20;;;;;;5104804;28;20211;-87
2021/05/22 05:16:03;;;;;;;0.80;0.80;;;8.90;94.90;;;;;;5103857;28;20224;-88
2021/05/22 05:18:30;;;;;;;1.00;0.90;;;8.90;94.60;;;;;;5103447;28;20201;-88
2021/05/22 05:20:56;;;;;;;1.20;0.98;;;8.90;94.30;;;;;;5103616;28;20220;-89
2021/05/22 05:23:23;;;;;;;1.00;0.68;;;8.90;94.90;;;;;;5104442;28;20205;-87
2021/05/22 05:25:51;;;;;;;1.00;0.88;;;9.00;94.70;;;;;;5099925;28;20316;-88
2021/05/22 05:28:19;;;;;;;2.45;0.77;;;9.10;94.30;;;;;;5095755;28;20204;-87
2021/05/22 05:30:45;;;;;;;1.05;1.05;;;9.10;93.80;;;;;;5102298;28;20584;-88
2021/05/22 05:33:12;;;;;;;1.60;0.93;;;9.10;93.70;;;;;;5102783;28;20722;-87
2021/05/22 05:35:38;;;;;;;1.40;1.02;;;9.20;93.80;;;;;;5101922;28;20330;-88
2021/05/22 05:38:05;;;;;;;0.95;0.90;;;9.30;93.10;;;;;;5102094;28;20213;-89
2021/05/22 05:40:31;;;;;;;0.60;0.60;;;9.40;93.00;;;;;;5102168;28;20200;-87
2021/05/22 05:42:58;;;;;;;2.33;1.48;;;9.50;92.70;;;;;;5101648;28;20261;-88
2021/05/22 05:45:25;;;;;;;0.90;0.80;;;9.50;92.40;;;;;;5095194;28;20204;-87
2021/05/22 05:47:53;;;;;;;1.85;0.70;;;9.50;92.20;;;;;;5079899;28;20233;-88
2021/05/22 05:50:20;;;;;;;0.60;0.60;;;9.60;92.60;;;;;;5080759;28;20205;-91
2021/05/22 05:52:46;;;;;;;3.80;1.00;;;9.70;91.60;;;;;;5092610;28;20216;-87
2021/05/22 05:55:13;;;;;;;1.58;0.90;;;9.70;91.40;;;;;;5101135;28;20307;-87
2021/05/22 05:57:40;;;;;;;0.82;0.77;;;9.80;91.50;;;;;;5100462;28;20227;-90
2021/05/22 06:00:09;;;;;;;0.88;0.88;;;9.80;91.20;;;;;;5101865;28;21131;-87
2021/05/22 06:02:36;;;;;;;1.17;1.00;;;9.90;90.70;;;;;;5097694;28;20220;-88
2021/05/22 06:05:03;;;;;;;3.85;0.80;;;10.00;90.30;;;;;;5099829;28;20719;-88
2021/05/22 06:07:30;;;;;;;3.67;0.93;;;10.00;90.30;;;;;;5102982;28;20283;-86
2021/05/22 06:09:56;;;;;;;1.60;0.60;;;10.10;90.50;;;;;;5105597;28;20277;-86
2021/05/22 06:12:22;;;;;;;2.38;0.60;;;10.10;90.30;;;;;;5103660;28;20735;-86
2021/05/22 06:14:52;;;;;;;1.83;0.98;;;10.20;90.10;;;;;;5104611;28;20205;-89
2021/05/22 06:17:20;;;;;;;0.88;0.60;;;10.30;90.40;;;;;;5099349;28;20233;-87
2021/05/22 06:19:47;;;;;;;1.55;0.57;;;10.50;89.50;;;;;;5088600;28;20189;-87
2021/05/22 06:22:56;;;;;;;1.63;0.80;;;10.60;87.70;;;;;;5093749;28;20280;-87
2021/05/22 06:25:31;;;;;;;0.82;0.60;;;10.70;86.70;;;;;;5122247;28;20268;-86
2021/05/22 06:31:35;;;;;;;0.95;0.70;;;11.10;87.80;;;;;;5136647;27;20191;-87
2021/05/22 06:34:03;;;;;;;1.63;0.70;;;11.30;84.10;;;;;;5116729;27;20204;-89
2021/05/22 06:36:32;;;;;;;1.25;0.70;;;11.20;84.40;;;;;;5110618;28;20260;-89
2021/05/22 06:38:59;;;;;;;1.05;0.88;;;11.40;84.60;;;;;;5127770;28;20195;-89
2021/05/22 06:41:31;;;;;;;1.08;0.80;;;11.40;83.20;;;;;;5125915;28;20215;-88
2021/05/22 06:43:59;;;;;;;2.05;0.90;;;11.30;83.30;;;;;;5126414;28;20191;-88
2021/05/22 06:49:12;;;;;;;2.83;1.13;;;11.10;85.60;;;;;;5116180;28;20195;-88
2021/05/22 06:51:38;;;;;;;2.45;1.25;;;11.10;85.00;;;;;;5132792;27;20306;-86
2021/05/22 06:54:06;;;;;;;2.80;1.35;;;11.10;85.80;;;;;;5110070;27;20212;-86
2021/05/22 06:56:32;;;;;;;4.55;1.10;;;11.10;86.30;;;;;;5123893;28;20250;-88
2021/05/22 06:59:05;;;;;;;1.30;1.20;;;11.50;83.90;;;;;;5121868;27;20213;-91
2021/05/22 07:01:33;;;;;;;1.98;1.10;;;11.80;82.70;;;;;;5123728;28;20860;-90
2021/05/22 07:04:05;;;;;;;2.33;1.35;;;12.00;83.40;;;;;;5126191;27;20208;-87
2021/05/22 07:06:34;;;;;;;1.65;1.02;;;12.20;82.20;;;;;;5126703;27;20757;-89
2021/05/22 07:09:13;;;;;;;2.38;0.95;;;12.30;78.30;;;;;;5124982;28;20231;-87
2021/05/22 07:11:41;;;;;;;4.30;1.40;;;12.10;79.70;;;;;;5132239;27;20223;-87
2021/05/22 07:14:16;;;;;;;4.47;1.42;;;11.90;79.90;;;;;;5113680;27;20214;-88
2021/05/22 07:16:42;;;;;;;2.17;1.08;;;11.80;82.20;;;;;;5123574;28;20227;-88
2021/05/22 07:19:09;;;;;;;1.52;1.15;;;12.00;81.00;;;;;;5128335;27;20258;-88
2021/05/22 07:21:39;;;;;;;2.28;1.13;;;12.30;79.30;;;;;;5131499;27;20220;-90
2021/05/22 07:24:06;;;;;;;3.17;1.27;;;12.50;78.00;;;;;;5118858;27;20965;-88
2021/05/22 07:26:38;;;;;;;4.75;1.15;;;12.60;75.50;;;;;;5125227;27;20223;-89
2021/05/22 07:29:04;;;;;;;2.92;1.40;;;12.70;76.50;;;;;;5120092;28;20195;-89
2021/05/22 07:31:32;;;;;;;3.83;1.20;;;12.70;73.20;;;;;;5123130;27;20223;-88
2021/05/22 07:34:02;;;;;;;3.83;1.40;;;12.90;73.30;;;;;;5100821;28;20200;-90
2021/05/22 07:36:28;;;;;;;4.95;1.55;;;13.00;67.60;;;;;;5126027;27;20448;-88
2021/05/22 07:38:56;;;;;;;4.65;1.50;;;12.80;67.40;;;;;;5108132;28;20260;-89
2021/05/22 07:41:24;;;;;;;3.42;1.55;;;12.60;67.90;;;;;;5122916;28;20261;-89
2021/05/22 07:43:50;;;;;;;4.18;1.52;;;12.70;69.50;;;;;;5127033;27;20769;-87
2021/05/22 07:46:17;;;;;;;2.08;1.30;;;13.00;63.90;;;;;;5130753;27;20318;-87
2021/05/22 07:48:43;;;;;;;3.97;1.27;;;13.10;67.40;;;;;;5127659;27;20203;-88
2021/05/22 07:51:10;;;;;;;2.58;1.42;;;13.20;64.60;;;;;;5135519;27;20241;-88
2021/05/22 07:53:36;;;;;;;4.10;1.30;;;13.20;61.90;;;;;;5128880;28;20216;-88
2021/05/22 07:56:07;;;;;;;3.90;1.50;;;13.30;58.70;;;;;;5125310;28;20216;-86
2021/05/22 07:58:36;;;;;;;3.50;1.17;;;13.50;60.50;;;;;;5128048;27;20208;-88
2021/05/22 08:01:04;;;;;;;4.40;1.50;;;13.80;57.20;;;;;;5125596;28;20219;-88
2021/05/22 08:03:30;;;;;;;2.80;1.40;;;13.90;58.40;;;;;;5109186;28;20561;-86
2021/05/22 08:05:57;;;;;;;4.13;1.48;;;14.20;56.10;;;;;;5140375;27;20249;-87
2021/05/22 08:08:23;;;;;;;5.43;1.55;;;14.30;56.70;;;;;;5118808;28;20306;-89
2021/05/22 08:10:50;;;;;;;5.78;1.50;;;14.40;50.80;;;;;;5123447;28;20200;-90
2021/05/22 08:13:20;;;;;;;4.20;1.25;;;14.00;50.50;;;;;;5125107;28;20217;-88
2021/05/22 08:15:49;;;;;;;7.13;1.85;;;13.70;52.20;;;;;;5136026;28;20203;-87
2021/05/22 08:18:15;;;;;;;2.40;1.30;;;14.00;55.00;;;;;;5124120;28;20203;-89
2021/05/22 08:20:42;;;;;;;10.85;7.03;;;14.40;50.80;;;;;;5116260;28;20322;-88
2021/05/22 08:23:08;;;;;;;5.70;1.45;;;15.20;47.80;;;;;;5116618;28;20200;-89
2021/05/22 08:25:35;;;;;;;6.07;2.20;;;16.40;42.40;;;;;;5115393;28;20203;-91
2021/05/22 08:28:01;;;;;;;2.83;1.15;;;16.80;40.20;;;;;;5124711;28;20244;-89
2021/05/22 08:30:29;;;;;;;5.38;3.03;;;16.60;43.00;;;;;;5119504;28;20199;-91
2021/05/22 08:32:56;;;;;;;5.38;1.95;;;16.50;41.50;;;;;;5120630;28;20227;-87
2021/05/22 08:35:23;;;;;;;3.95;1.45;;;16.00;41.90;;;;;;5126699;28;20252;-88
2021/05/22 08:37:49;;;;;;;5.47;2.50;;;16.00;42.80;;;;;;5130881;28;20237;-87
2021/05/22 08:40:16;;;;;;;8.75;5.78;;;16.50;41.50;;;;;;5118132;28;20205;-88
2021/05/22 08:42:42;;;;;;;7.30;2.58;;;17.60;40.80;;;;;;5121268;28;20226;-85
2021/05/22 08:45:11;;;;;;;5.00;2.15;;;19.00;35.30;;;;;;5116748;28;20198;-85
2021/05/22 08:47:40;;;;;;;5.07;2.15;;;21.50;28.30;;;;;;5116327;28;20231;-82
2021/05/22 08:50:10;;;;;;;4.85;1.58;;;22.90;27.30;;;;;;5113452;28;20200;-85
2021/05/22 08:52:39;;;;;;;5.38;2.97;;;23.60;25.20;;;;;;5120076;28;20224;-86
2021/05/22 08:55:07;;;;;;;4.75;1.80;;;24.30;23.80;;;;;;5113531;28;20215;-84
2021/05/22 08:57:34;;;;;;;3.88;1.75;;;25.20;22.00;;;;;;5112330;28;20223;-83
2021/05/22 09:00:14;;;;;;;2.38;1.63;;;26.20;19.80;;;;;;5107513;28;20191;-85
2021/05/22 09:02:42;;;;;;;4.93;2.65;;;26.80;18.30;;;;;;5110042;28;20223;-87
2021/05/22 09:05:12;;;;;;;2.25;1.42;;;27.40;19.10;;;;;;5111980;28;20200;-83
2021/05/22 09:07:41;;;;;;;4.80;1.90;;;27.20;17.20;;;;;;5120666;28;20215;-84
2021/05/22 09:10:13;;;;;;;2.72;1.70;;;26.00;18.70;;;;;;5122271;28;20673;-85
2021/05/22 09:12:44;;;;;;;4.78;1.80;;;25.50;18.10;;;;;;5115308;28;20212;-82
2021/05/22 09:15:12;;;;;;;4.03;1.70;;;24.10;19.60;;;;;;5124927;28;20251;-83
2021/05/22 09:17:47;;;;;;;3.67;1.50;;;22.70;20.70;;;;;;5121444;27;20708;-83
2021/05/22 09:20:18;;;;;;;3.80;1.50;;;23.20;22.50;;;;;;5128220;27;20195;-83
2021/05/22 09:23:02;;;;;;;3.28;1.65;;;24.20;20.00;;;;;;5129035;27;20564;-83
2021/05/22 09:25:29;;;;;;;4.47;1.48;;;23.30;21.00;;;;;;5121013;28;20202;-83
2021/05/22 09:27:57;;;;;;;3.78;1.70;;;22.80;22.60;;;;;;5123136;27;20287;-83
2021/05/22 09:30:25;;;;;;;3.72;1.60;;;23.30;21.70;;;;;;5124645;28;20194;-84
2021/05/22 09:32:53;;;;;;;2.33;1.63;;;24.60;19.80;;;;;;5129194;27;20227;-83
2021/05/22 09:35:21;;;;;;;3.03;1.70;;;25.50;18.30;;;;;;5135421;27;20206;-83
2021/05/22 09:37:50;;;;;;;2.63;1.70;;;26.20;17.80;;;;;;5131211;27;20227;-82
2021/05/22 09:40:20;;;;;;;4.35;1.60;;;26.00;17.30;;;;;;5119744;28;20192;-83
2021/05/22 09:42:47;;;;;;;3.75;1.63;;;24.70;19.10;;;;;;5122927;27;20219;-87
2021/05/22 09:45:29;;;;;;;2.75;1.60;;;23.90;19.10;;;;;;5124058;28;20641;-82
2021/05/22 09:47:59;;;;;;;4.82;1.90;;;23.60;21.50;;;;;;5134696;27;20705;-82
2021/05/22 09:50:33;;;;;;;3.40;1.63;;;24.00;19.50;;;;;;5130636;27;20193;-84
2021/05/22 09:53:03;;;;;;;2.33;1.60;;;25.30;19.30;;;;;;5103836;28;20221;-84
2021/05/22 09:55:29;;;;;;;2.92;1.55;;;25.90;17.90;;;;;;5091429;28;20212;-86
2021/05/22 09:57:56;;;;;;;2.90;1.70;;;26.90;17.40;;;;;;5094395;28;20215;-83
2021/05/22 10:00:26;;;;;;;2.97;1.70;;;26.90;15.10;;;;;;5100842;28;20195;-83
2021/05/22 10:02:53;;;;;;;2.60;1.70;;;25.70;16.20;;;;;;5106657;28;20586;-83
2021/05/22 10:05:22;;;;;;;4.50;1.50;;;24.50;20.00;;;;;;5108718;28;20248;-84
2021/05/22 10:07:49;;;;;;;3.33;1.55;;;23.90;20.30;;;;;;5112503;28;20273;-81
2021/05/22 10:10:17;;;;;;;4.07;1.40;;;23.50;21.40;;;;;;5109011;28;20649;-84
2021/05/22 10:12:48;;;;;;;3.47;1.25;;;23.40;22.00;;;;;;5125838;27;20588;-82
2021/05/22 10:15:16;;;;;;;2.40;1.38;;;22.10;22.00;;;;;;5122908;27;20243;-85
2021/05/22 10:17:43;;;;;;;1.75;1.20;;;21.70;24.10;;;;;;5119658;27;20219;-84
2021/05/22 10:20:11;;;;;;;2.58;1.20;;;20.70;25.40;;;;;;5126638;27;20200;-84
2021/05/22 10:22:41;;;;;;;3.67;1.52;;;19.60;28.20;;;;;;5132957;27;20700;-84
2021/05/22 10:25:09;;;;;;;2.05;1.20;;;20.00;28.90;;;;;;5118120;27;20563;-84
2021/05/22 10:27:36;;;;;;;3.60;1.40;;;21.20;25.60;;;;;;5125129;27;20219;-82
2021/05/22 10:30:05;;;;;;;3.53;1.80;;;21.70;24.80;;;;;;5119262;27;20650;-83
2021/05/22 10:32:32;;;;;;;3.45;1.30;;;21.40;24.80;;;;;;5100934;28;20227;-91
2021/05/22 10:35:08;;;;;;;2.50;1.10;;;21.60;26.30;;;;;;5105589;28;20197;-83
2021/05/22 10:37:45;;;;;;;2.72;1.75;;;22.10;26.50;;;;;;5117115;27;20227;-85
2021/05/22 10:40:15;;;;;;;6.68;3.78;;;23.10;25.10;;;;;;5110280;28;20261;-83
2021/05/22 10:42:47;;;;;;;2.45;1.52;;;24.00;20.00;;;;;;5116981;27;20219;-82
2021/05/22 10:45:34;;;;;;;5.07;1.73;;;24.20;22.30;;;;;;5100868;28;20195;-84
2021/05/22 10:48:02;;;;;;;3.00;1.73;;;24.40;21.90;;;;;;5091167;28;20229;-83
2021/05/22 10:50:49;;;;;;;7.97;2.53;;;23.90;22.90;;;;;;5128591;27;20208;-82
2021/05/22 10:53:24;;;;;;;4.47;1.48;;;24.50;20.00;;;;;;5091825;28;20265;-84
2021/05/22 10:56:10;;;;;;;3.97;1.95;;;25.00;20.60;;;;;;5094114;28;20257;-83
2021/05/22 10:58:38;;;;;;;2.78;2.20;;;25.20;19.00;;;;;;5113108;27;20202;-83
2021/05/22 11:01:31;;;;;;;2.88;1.80;;;24.60;18.90;;;;;;5117722;27;20223;-82
2021/05/22 11:04:30;;;;;;;4.38;1.85;;;23.60;22.20;;;;;;5128779;27;20203;-82
2021/05/22 11:06:59;;;;;;;4.85;1.30;;;22.00;22.90;;;;;;5137642;27;20227;-84
2021/05/22 11:09:51;;;;;;;3.67;1.40;;;20.80;28.60;;;;;;5135906;27;20609;-84
2021/05/22 11:12:46;;;;;;;3.97;1.00;;;20.00;27.40;;;;;;5133333;27;20321;-86
2021/05/22 11:15:45;;;;;;;1.60;0.98;;;19.10;29.70;;;;;;5122359;27;20199;-87
2021/05/22 11:18:14;;;;;;;3.92;1.83;;;19.40;31.60;;;;;;5106348;28;20228;-86
2021/05/22 11:20:43;;;;;;;2.08;1.30;;;19.60;30.50;;;;;;5131494;27;20204;-86
2021/05/22 11:23:09;;;;;;;1.83;1.20;;;19.70;31.80;;;;;;5144177;27;20229;-86
2021/05/22 11:25:49;;;;;;;4.88;1.20;;;19.70;29.60;;;;;;5140114;27;20538;-87
2021/05/22 11:28:20;;;;;;;1.90;0.95;;;19.10;31.30;;;;;;5103199;28;20223;-86
2021/05/22 11:30:49;;;;;;;4.13;1.40;;;19.00;31.20;;;;;;5107052;28;20200;-86
2021/05/22 11:33:29;;;;;;;2.10;1.08;;;19.10;31.30;;;;;;5107682;28;20200;-86
2021/05/22 11:35:57;;;;;;;3.60;1.40;;;18.80;32.00;;;;;;5102686;28;20204;-86
2021/05/22 11:38:38;;;;;;;4.50;1.40;;;18.80;31.00;;;;;;5100246;28;20215;-87
2021/05/22 11:41:37;;;;;;;1.88;1.00;;;18.80;31.00;;;;;;5106298;28;20227;-87
2021/05/22 11:44:08;;;;;;;2.70;1.10;;;18.80;31.00;;;;;;5096742;28;20264;-86
2021/05/22 11:46:34;;;;;;;5.68;1.20;;;18.90;30.70;;;;;;5103227;28;20262;-90
2021/05/22 11:49:00;;;;;;;1.90;1.08;;;18.90;29.00;;;;;;5109987;28;20577;-86
2021/05/22 11:51:29;;;;;;;1.48;1.05;;;18.80;28.40;;;;;;5126467;27;20228;-86
2021/05/22 11:53:58;;;;;;;3.13;1.23;;;18.70;30.20;;;;;;5135946;27;20824;-86
2021/05/22 11:57:06;;;;;;;1.35;0.90;;;18.70;31.00;;;;;;5122231;27;20234;-86
2021/05/22 11:59:39;;;;;;;1.45;0.82;;;18.40;27.50;;;;;;5126003;27;20694;-87
2021/05/22 12:02:05;;;;;;;3.47;1.15;;;18.70;26.70;;;;;;5125640;28;20330;-86
2021/05/22 12:04:34;;;;;;;3.03;0.90;;;18.80;27.90;;;;;;5122451;28;20191;-87
2021/05/22 12:07:02;;;;;;;4.70;1.10;;;19.00;27.50;;;;;;5121511;28;20291;-86
2021/05/22 12:09:32;;;;;;;1.73;0.90;;;19.20;25.60;;;;;;5132154;27;20195;-86
2021/05/22 12:12:01;;;;;;;2.70;1.02;;;19.30;27.70;;;;;;5124229;28;20297;-86
2021/05/22 12:14:39;;;;;;;1.65;0.80;;;19.20;27.00;;;;;;5124908;28;20282;-87
2021/05/22 12:17:06;;;;;;;2.53;0.90;;;19.00;26.70;;;;;;5105036;28;20752;-88
2021/05/22 12:19:34;;;;;;;2.47;1.00;;;18.80;27.70;;;;;;5124136;28;20243;-88
2021/05/22 12:22:01;;;;;;;2.20;1.00;;;18.80;29.90;;;;;;5114755;28;20223;-87
2021/05/22 12:24:27;;;;;;;2.90;1.17;;;18.90;27.30;;;;;;5122997;28;20196;-86
2021/05/22 12:26:56;;;;;;;2.97;1.00;;;18.80;27.70;;;;;;5116198;28;20235;-87
2021/05/22 12:29:23;;;;;;;2.05;0.90;;;18.50;28.90;;;;;;5115647;28;20199;-87
2021/05/22 12:31:55;;;;;;;4.45;1.20;;;18.50;27.80;;;;;;5115208;28;20756;-88
2021/05/22 12:34:29;;;;;;;4.13;1.10;;;18.40;27.40;;;;;;5115418;28;20626;-87
2021/05/22 12:36:59;;;;;;;6.07;1.20;;;18.30;30.60;;;;;;5114626;28;20231;-86
2021/05/22 12:39:31;;;;;;;1.77;0.93;;;18.50;27.80;;;;;;5115987;28;20200;-87
2021/05/22 12:41:58;;;;;;;1.88;1.08;;;18.40;28.10;;;;;;5114934;28;20304;-87
2021/05/22 12:44:24;;;;;;;2.30;0.80;;;18.40;29.30;;;;;;5116113;28;20241;-86
2021/05/22 12:47:00;;;;;;;3.38;1.33;;;18.40;30.30;;;;;;5118406;28;20631;-86
2021/05/22 12:49:31;;;;;;;1.92;1.00;;;18.40;30.80;;;;;;5116287;28;20207;-86
2021/05/22 12:52:03;;;;;;;4.50;1.10;;;18.50;28.40;;;;;;5123152;27;20227;-87
2021/05/22 12:54:32;;;;;;;3.63;1.10;;;18.60;29.50;;;;;;5120269;27;20219;-87
2021/05/22 12:57:04;;;;;;;1.98;1.00;;;18.80;28.00;;;;;;5135096;27;20337;-87
2021/05/22 12:59:31;;;;;;;3.10;1.20;;;19.00;30.00;;;;;;5133070;27;20191;-86
2021/05/22 13:02:24;;;;;;;1.23;0.93;;;19.10;29.00;;;;;;5136493;27;20259;-86
2021/05/22 13:04:53;;;;;;;2.85;1.30;;;19.10;25.80;;;;;;5132692;27;20205;-86
2021/05/22 13:07:26;;;;;;;2.65;1.00;;;18.90;27.30;;;;;;5131630;27;20250;-88